sensor_id;sensor_type;location;lat;lon;timestamp;temperature;humidity
55785;DHT22;41709;52.536;5.688;2023-05-10T00:00:22;13.10;93.50
55785;DHT22;41709;52.536;5.688;2023-05-10T00:02:49;13.10;93.50
55785;DHT22;41709;52.536;5.688;2023-05-10T00:05:15;13.10;93.50
55785;DHT22;41709;52.536;5.688;2023-05-10T00:07:40;13.10;93.40
55785;DHT22;41709;52.536;5.688;2023-05-10T00:10:06;13.10;93.40
55785;DHT22;41709;52.536;5.688;2023-05-10T00:12:32;13.20;93.40
55785;DHT22;41709;52.536;5.688;2023-05-10T00:14:57;13.20;93.40
55785;DHT22;41709;52.536;5.688;2023-05-10T00:17:23;13.20;93.40
55785;DHT22;41709;52.536;5.688;2023-05-10T00:19:48;13.20;93.30
55785;DHT22;41709;52.536;5.688;2023-05-10T00:22:14;13.20;93.60
55785;DHT22;41709;52.536;5.688;2023-05-10T00:24:39;13.20;93.30
55785;DHT22;41709;52.536;5.688;2023-05-10T00:27:05;13.20;93.30
55785;DHT22;41709;52.536;5.688;2023-05-10T00:29:30;13.20;93.30
55785;DHT22;41709;52.536;5.688;2023-05-10T00:31:57;13.10;93.30
55785;DHT22;41709;52.536;5.688;2023-05-10T00:34:22;13.10;93.40
55785;DHT22;41709;52.536;5.688;2023-05-10T00:36:48;13.10;93.30
55785;DHT22;41709;52.536;5.688;2023-05-10T00:39:13;13.10;93.30
55785;DHT22;41709;52.536;5.688;2023-05-10T00:41:39;13.10;93.30
55785;DHT22;41709;52.536;5.688;2023-05-10T00:44:04;13.10;93.30
55785;DHT22;41709;52.536;5.688;2023-05-10T00:46:31;13.10;93.50
55785;DHT22;41709;52.536;5.688;2023-05-10T00:48:57;13.00;93.50
55785;DHT22;41709;52.536;5.688;2023-05-10T00:51:22;13.00;93.30
55785;DHT22;41709;52.536;5.688;2023-05-10T00:53:48;13.00;93.30
55785;DHT22;41709;52.536;5.688;2023-05-10T00:56:15;12.90;93.30
55785;DHT22;41709;52.536;5.688;2023-05-10T00:58:41;12.90;93.30
55785;DHT22;41709;52.536;5.688;2023-05-10T01:01:08;13.00;93.30
55785;DHT22;41709;52.536;5.688;2023-05-10T01:03:34;13.00;93.30
55785;DHT22;41709;52.536;5.688;2023-05-10T01:06:01;13.00;93.20
55785;DHT22;41709;52.536;5.688;2023-05-10T01:08:27;13.00;93.20
55785;DHT22;41709;52.536;5.688;2023-05-10T01:10:53;13.00;93.10
55785;DHT22;41709;52.536;5.688;2023-05-10T01:13:30;13.00;93.10
55785;DHT22;41709;52.536;5.688;2023-05-10T01:15:57;13.00;93.00
55785;DHT22;41709;52.536;5.688;2023-05-10T01:18:23;13.00;93.00
55785;DHT22;41709;52.536;5.688;2023-05-10T01:27:05;13.00;93.10
55785;DHT22;41709;52.536;5.688;2023-05-10T01:40:48;12.90;93.10
55785;DHT22;41709;52.536;5.688;2023-05-10T01:43:26;12.90;93.10
55785;DHT22;41709;52.536;5.688;2023-05-10T01:46:05;12.80;93.00
55785;DHT22;41709;52.536;5.688;2023-05-10T01:48:37;12.80;93.10
55785;DHT22;41709;52.536;5.688;2023-05-10T01:51:06;12.80;93.10
55785;DHT22;41709;52.536;5.688;2023-05-10T01:53:35;12.80;93.20
55785;DHT22;41709;52.536;5.688;2023-05-10T01:56:03;12.70;93.20
55785;DHT22;41709;52.536;5.688;2023-05-10T01:58:31;12.80;93.30
55785;DHT22;41709;52.536;5.688;2023-05-10T02:01:00;12.70;93.70
55785;DHT22;41709;52.536;5.688;2023-05-10T02:03:27;12.70;93.40
55785;DHT22;41709;52.536;5.688;2023-05-10T02:05:54;12.80;93.60
55785;DHT22;41709;52.536;5.688;2023-05-10T02:08:21;12.80;93.30
55785;DHT22;41709;52.536;5.688;2023-05-10T02:10:50;12.70;93.30
55785;DHT22;41709;52.536;5.688;2023-05-10T02:13:17;12.70;93.40
55785;DHT22;41709;52.536;5.688;2023-05-10T02:15:44;12.70;93.40
55785;DHT22;41709;52.536;5.688;2023-05-10T02:18:12;12.70;93.50
55785;DHT22;41709;52.536;5.688;2023-05-10T02:20:39;12.80;93.70
55785;DHT22;41709;52.536;5.688;2023-05-10T02:23:05;12.80;93.50
55785;DHT22;41709;52.536;5.688;2023-05-10T02:25:32;12.80;93.50
55785;DHT22;41709;52.536;5.688;2023-05-10T02:28:00;12.70;93.50
55785;DHT22;41709;52.536;5.688;2023-05-10T02:30:27;12.70;93.50
55785;DHT22;41709;52.536;5.688;2023-05-10T02:32:53;12.70;93.60
55785;DHT22;41709;52.536;5.688;2023-05-10T02:35:20;12.70;93.70
55785;DHT22;41709;52.536;5.688;2023-05-10T02:37:46;12.80;93.80
55785;DHT22;41709;52.536;5.688;2023-05-10T02:40:13;12.80;93.80
55785;DHT22;41709;52.536;5.688;2023-05-10T02:42:42;12.80;93.80
55785;DHT22;41709;52.536;5.688;2023-05-10T02:45:12;12.80;93.80
55785;DHT22;41709;52.536;5.688;2023-05-10T02:47:38;12.90;93.80
55785;DHT22;41709;52.536;5.688;2023-05-10T02:50:05;12.90;93.80
55785;DHT22;41709;52.536;5.688;2023-05-10T02:52:40;12.90;93.80
55785;DHT22;41709;52.536;5.688;2023-05-10T02:55:09;12.90;93.80
55785;DHT22;41709;52.536;5.688;2023-05-10T02:57:40;12.90;93.80
55785;DHT22;41709;52.536;5.688;2023-05-10T03:00:07;12.90;93.90
55785;DHT22;41709;52.536;5.688;2023-05-10T03:02:33;12.90;93.90
55785;DHT22;41709;52.536;5.688;2023-05-10T03:04:59;12.90;94.30
55785;DHT22;41709;52.536;5.688;2023-05-10T03:07:24;12.90;94.00
55785;DHT22;41709;52.536;5.688;2023-05-10T03:09:50;12.90;94.00
55785;DHT22;41709;52.536;5.688;2023-05-10T03:12:37;12.90;93.90
55785;DHT22;41709;52.536;5.688;2023-05-10T03:20:51;12.90;93.90
55785;DHT22;41709;52.536;5.688;2023-05-10T03:23:26;12.90;93.90
55785;DHT22;41709;52.536;5.688;2023-05-10T03:25:53;12.90;93.90
55785;DHT22;41709;52.536;5.688;2023-05-10T03:28:19;12.90;93.90
55785;DHT22;41709;52.536;5.688;2023-05-10T03:30:46;12.90;93.90
55785;DHT22;41709;52.536;5.688;2023-05-10T03:33:12;12.90;93.90
55785;DHT22;41709;52.536;5.688;2023-05-10T03:35:38;12.90;93.90
55785;DHT22;41709;52.536;5.688;2023-05-10T03:38:04;12.80;93.90
55785;DHT22;41709;52.536;5.688;2023-05-10T03:40:30;12.80;94.30
55785;DHT22;41709;52.536;5.688;2023-05-10T03:42:57;12.80;94.00
55785;DHT22;41709;52.536;5.688;2023-05-10T03:45:23;12.70;94.00
55785;DHT22;41709;52.536;5.688;2023-05-10T03:47:49;12.70;94.10
55785;DHT22;41709;52.536;5.688;2023-05-10T03:50:14;12.70;94.10
55785;DHT22;41709;52.536;5.688;2023-05-10T03:52:40;12.80;94.20
55785;DHT22;41709;52.536;5.688;2023-05-10T03:55:06;12.70;94.10
55785;DHT22;41709;52.536;5.688;2023-05-10T03:57:32;12.70;94.10
55785;DHT22;41709;52.536;5.688;2023-05-10T03:59:57;12.60;94.10
55785;DHT22;41709;52.536;5.688;2023-05-10T04:02:23;12.50;94.20
55785;DHT22;41709;52.536;5.688;2023-05-10T04:04:48;12.50;94.30
55785;DHT22;41709;52.536;5.688;2023-05-10T04:07:14;12.40;94.40
55785;DHT22;41709;52.536;5.688;2023-05-10T04:09:40;12.40;94.50
55785;DHT22;41709;52.536;5.688;2023-05-10T04:12:06;12.40;94.40
55785;DHT22;41709;52.536;5.688;2023-05-10T04:14:31;12.40;94.50
55785;DHT22;41709;52.536;5.688;2023-05-10T04:16:57;12.40;94.40
55785;DHT22;41709;52.536;5.688;2023-05-10T04:19:22;12.40;94.30
55785;DHT22;41709;52.536;5.688;2023-05-10T04:21:48;12.50;94.00
55785;DHT22;41709;52.536;5.688;2023-05-10T04:24:13;12.40;94.00
55785;DHT22;41709;52.536;5.688;2023-05-10T04:26:39;12.40;94.00
55785;DHT22;41709;52.536;5.688;2023-05-10T04:29:05;12.40;94.00
55785;DHT22;41709;52.536;5.688;2023-05-10T04:31:30;12.40;94.00
55785;DHT22;41709;52.536;5.688;2023-05-10T04:33:56;12.40;94.00
55785;DHT22;41709;52.536;5.688;2023-05-10T04:36:21;12.50;94.00
55785;DHT22;41709;52.536;5.688;2023-05-10T04:38:47;12.50;93.90
55785;DHT22;41709;52.536;5.688;2023-05-10T04:41:13;12.50;93.70
55785;DHT22;41709;52.536;5.688;2023-05-10T04:43:38;12.50;93.80
55785;DHT22;41709;52.536;5.688;2023-05-10T04:46:05;12.40;93.50
55785;DHT22;41709;52.536;5.688;2023-05-10T04:48:30;12.30;93.50
55785;DHT22;41709;52.536;5.688;2023-05-10T04:50:56;12.30;93.70
55785;DHT22;41709;52.536;5.688;2023-05-10T04:53:22;12.30;93.70
55785;DHT22;41709;52.536;5.688;2023-05-10T04:55:48;12.30;93.70
55785;DHT22;41709;52.536;5.688;2023-05-10T04:58:14;12.30;93.60
55785;DHT22;41709;52.536;5.688;2023-05-10T05:00:39;12.40;93.50
55785;DHT22;41709;52.536;5.688;2023-05-10T05:03:05;12.40;93.60
55785;DHT22;41709;52.536;5.688;2023-05-10T05:05:31;12.40;93.60
55785;DHT22;41709;52.536;5.688;2023-05-10T05:07:56;12.40;93.80
55785;DHT22;41709;52.536;5.688;2023-05-10T05:10:22;12.40;93.80
55785;DHT22;41709;52.536;5.688;2023-05-10T05:12:48;12.40;93.70
55785;DHT22;41709;52.536;5.688;2023-05-10T05:15:13;12.50;93.70
55785;DHT22;41709;52.536;5.688;2023-05-10T05:17:40;12.40;93.70
55785;DHT22;41709;52.536;5.688;2023-05-10T05:20:06;12.50;93.60
55785;DHT22;41709;52.536;5.688;2023-05-10T05:22:32;12.50;93.60
55785;DHT22;41709;52.536;5.688;2023-05-10T05:24:58;12.40;93.60
55785;DHT22;41709;52.536;5.688;2023-05-10T05:27:23;12.40;93.70
55785;DHT22;41709;52.536;5.688;2023-05-10T05:29:53;12.50;93.70
55785;DHT22;41709;52.536;5.688;2023-05-10T05:32:18;12.50;93.70
55785;DHT22;41709;52.536;5.688;2023-05-10T05:34:45;12.50;93.70
55785;DHT22;41709;52.536;5.688;2023-05-10T05:37:18;12.50;93.70
55785;DHT22;41709;52.536;5.688;2023-05-10T05:39:45;12.50;93.70
55785;DHT22;41709;52.536;5.688;2023-05-10T05:42:11;12.60;93.70
55785;DHT22;41709;52.536;5.688;2023-05-10T05:44:37;12.50;93.80
55785;DHT22;41709;52.536;5.688;2023-05-10T05:47:03;12.50;93.90
55785;DHT22;41709;52.536;5.688;2023-05-10T05:49:30;12.50;94.00
55785;DHT22;41709;52.536;5.688;2023-05-10T05:52:03;12.40;94.10
55785;DHT22;41709;52.536;5.688;2023-05-10T05:54:29;12.40;94.10
55785;DHT22;41709;52.536;5.688;2023-05-10T05:56:56;12.40;94.00
55785;DHT22;41709;52.536;5.688;2023-05-10T05:59:22;12.40;94.00
55785;DHT22;41709;52.536;5.688;2023-05-10T06:01:47;12.50;94.10
55785;DHT22;41709;52.536;5.688;2023-05-10T06:04:13;12.50;94.10
55785;DHT22;41709;52.536;5.688;2023-05-10T06:06:38;12.50;94.30
55785;DHT22;41709;52.536;5.688;2023-05-10T06:09:04;12.50;94.40
55785;DHT22;41709;52.536;5.688;2023-05-10T06:11:29;12.60;94.30
55785;DHT22;41709;52.536;5.688;2023-05-10T06:13:57;12.60;94.20
55785;DHT22;41709;52.536;5.688;2023-05-10T06:16:23;12.60;94.20
55785;DHT22;41709;52.536;5.688;2023-05-10T06:18:49;12.70;94.20
55785;DHT22;41709;52.536;5.688;2023-05-10T06:21:14;12.50;94.40
55785;DHT22;41709;52.536;5.688;2023-05-10T06:23:41;12.60;94.30
55785;DHT22;41709;52.536;5.688;2023-05-10T06:26:07;12.70;94.30
55785;DHT22;41709;52.536;5.688;2023-05-10T06:28:32;12.70;93.90
55785;DHT22;41709;52.536;5.688;2023-05-10T06:30:59;12.70;94.10
55785;DHT22;41709;52.536;5.688;2023-05-10T06:33:24;12.70;93.90
55785;DHT22;41709;52.536;5.688;2023-05-10T06:35:50;12.60;93.90
55785;DHT22;41709;52.536;5.688;2023-05-10T06:38:15;12.60;93.90
55785;DHT22;41709;52.536;5.688;2023-05-10T06:40:41;12.60;93.80
55785;DHT22;41709;52.536;5.688;2023-05-10T06:43:07;12.60;93.80
55785;DHT22;41709;52.536;5.688;2023-05-10T06:45:33;12.50;93.80
55785;DHT22;41709;52.536;5.688;2023-05-10T06:47:58;12.60;93.70
55785;DHT22;41709;52.536;5.688;2023-05-10T06:50:24;12.60;93.50
55785;DHT22;41709;52.536;5.688;2023-05-10T06:52:49;12.60;93.70
55785;DHT22;41709;52.536;5.688;2023-05-10T06:55:15;12.60;94.00
55785;DHT22;41709;52.536;5.688;2023-05-10T06:57:41;12.60;94.10
55785;DHT22;41709;52.536;5.688;2023-05-10T07:00:07;12.60;94.20
55785;DHT22;41709;52.536;5.688;2023-05-10T07:02:32;12.50;93.80
55785;DHT22;41709;52.536;5.688;2023-05-10T07:04:58;12.60;94.00
55785;DHT22;41709;52.536;5.688;2023-05-10T07:07:24;12.60;94.10
55785;DHT22;41709;52.536;5.688;2023-05-10T07:09:49;12.70;94.00
55785;DHT22;41709;52.536;5.688;2023-05-10T07:12:16;12.70;93.50
55785;DHT22;41709;52.536;5.688;2023-05-10T07:14:42;12.70;93.50
55785;DHT22;41709;52.536;5.688;2023-05-10T07:17:07;12.70;93.70
55785;DHT22;41709;52.536;5.688;2023-05-10T07:19:33;12.80;93.70
55785;DHT22;41709;52.536;5.688;2023-05-10T07:21:59;12.70;93.50
55785;DHT22;41709;52.536;5.688;2023-05-10T07:24:24;12.70;93.70
55785;DHT22;41709;52.536;5.688;2023-05-10T07:26:50;12.90;93.60
55785;DHT22;41709;52.536;5.688;2023-05-10T07:29:16;12.80;93.30
55785;DHT22;41709;52.536;5.688;2023-05-10T07:31:41;12.90;93.30
55785;DHT22;41709;52.536;5.688;2023-05-10T07:34:08;12.90;93.40
55785;DHT22;41709;52.536;5.688;2023-05-10T07:36:34;13.00;93.10
55785;DHT22;41709;52.536;5.688;2023-05-10T07:39:00;13.00;93.30
55785;DHT22;41709;52.536;5.688;2023-05-10T07:41:26;13.00;93.30
55785;DHT22;41709;52.536;5.688;2023-05-10T07:43:52;13.10;93.30
55785;DHT22;41709;52.536;5.688;2023-05-10T07:46:17;13.10;92.80
55785;DHT22;41709;52.536;5.688;2023-05-10T07:48:45;13.10;92.70
55785;DHT22;41709;52.536;5.688;2023-05-10T07:51:10;13.20;92.70
55785;DHT22;41709;52.536;5.688;2023-05-10T07:53:36;13.20;92.80
55785;DHT22;41709;52.536;5.688;2023-05-10T07:56:23;13.30;93.00
55785;DHT22;41709;52.536;5.688;2023-05-10T07:58:51;13.40;92.80
55785;DHT22;41709;52.536;5.688;2023-05-10T08:01:17;13.40;92.60
55785;DHT22;41709;52.536;5.688;2023-05-10T08:03:43;13.40;92.40
55785;DHT22;41709;52.536;5.688;2023-05-10T08:06:08;13.50;92.20
55785;DHT22;41709;52.536;5.688;2023-05-10T08:08:34;13.60;92.00
55785;DHT22;41709;52.536;5.688;2023-05-10T08:10:59;13.60;91.70
55785;DHT22;41709;52.536;5.688;2023-05-10T08:13:25;13.60;91.80
55785;DHT22;41709;52.536;5.688;2023-05-10T08:15:50;13.70;91.90
55785;DHT22;41709;52.536;5.688;2023-05-10T08:18:18;13.70;91.40
55785;DHT22;41709;52.536;5.688;2023-05-10T08:20:44;13.80;91.20
55785;DHT22;41709;52.536;5.688;2023-05-10T08:23:10;13.80;91.30
55785;DHT22;41709;52.536;5.688;2023-05-10T08:25:35;13.80;91.60
55785;DHT22;41709;52.536;5.688;2023-05-10T08:28:01;13.80;91.10
55785;DHT22;41709;52.536;5.688;2023-05-10T08:30:26;13.90;91.40
55785;DHT22;41709;52.536;5.688;2023-05-10T08:32:52;13.90;91.30
55785;DHT22;41709;52.536;5.688;2023-05-10T08:35:17;13.90;91.00
55785;DHT22;41709;52.536;5.688;2023-05-10T08:37:43;13.90;91.00
55785;DHT22;41709;52.536;5.688;2023-05-10T08:40:09;13.90;91.00
55785;DHT22;41709;52.536;5.688;2023-05-10T08:42:40;13.80;91.20
55785;DHT22;41709;52.536;5.688;2023-05-10T08:45:07;13.70;91.30
55785;DHT22;41709;52.536;5.688;2023-05-10T08:47:36;13.70;91.50
55785;DHT22;41709;52.536;5.688;2023-05-10T08:50:03;13.60;91.20
55785;DHT22;41709;52.536;5.688;2023-05-10T08:52:30;13.60;91.40
55785;DHT22;41709;52.536;5.688;2023-05-10T08:54:57;13.60;91.40
55785;DHT22;41709;52.536;5.688;2023-05-10T08:57:23;13.60;91.50
55785;DHT22;41709;52.536;5.688;2023-05-10T08:59:49;13.50;91.40
55785;DHT22;41709;52.536;5.688;2023-05-10T09:02:14;13.60;91.60
55785;DHT22;41709;52.536;5.688;2023-05-10T09:04:40;13.60;91.60
55785;DHT22;41709;52.536;5.688;2023-05-10T09:07:06;13.60;91.70
55785;DHT22;41709;52.536;5.688;2023-05-10T09:09:33;13.60;91.50
55785;DHT22;41709;52.536;5.688;2023-05-10T09:11:59;13.70;91.80
55785;DHT22;41709;52.536;5.688;2023-05-10T09:14:25;13.70;91.40
55785;DHT22;41709;52.536;5.688;2023-05-10T09:16:51;13.70;91.30
55785;DHT22;41709;52.536;5.688;2023-05-10T09:19:17;13.80;91.30
55785;DHT22;41709;52.536;5.688;2023-05-10T09:21:43;13.80;91.20
55785;DHT22;41709;52.536;5.688;2023-05-10T09:24:09;13.90;91.10
55785;DHT22;41709;52.536;5.688;2023-05-10T09:26:35;14.00;91.20
55785;DHT22;41709;52.536;5.688;2023-05-10T09:29:11;14.10;91.30
55785;DHT22;41709;52.536;5.688;2023-05-10T09:31:50;14.20;91.00
55785;DHT22;41709;52.536;5.688;2023-05-10T09:34:21;14.20;90.80
55785;DHT22;41709;52.536;5.688;2023-05-10T09:36:56;14.20;90.60
55785;DHT22;41709;52.536;5.688;2023-05-10T09:39:30;14.30;90.80
55785;DHT22;41709;52.536;5.688;2023-05-10T09:41:58;14.20;90.70
55785;DHT22;41709;52.536;5.688;2023-05-10T09:44:25;14.30;90.70
55785;DHT22;41709;52.536;5.688;2023-05-10T09:46:51;14.30;90.60
55785;DHT22;41709;52.536;5.688;2023-05-10T09:49:21;14.30;90.40
55785;DHT22;41709;52.536;5.688;2023-05-10T09:51:46;14.30;90.30
55785;DHT22;41709;52.536;5.688;2023-05-10T09:54:14;14.30;90.30
55785;DHT22;41709;52.536;5.688;2023-05-10T09:56:40;14.30;90.00
55785;DHT22;41709;52.536;5.688;2023-05-10T09:59:07;14.30;90.10
55785;DHT22;41709;52.536;5.688;2023-05-10T10:01:34;14.30;90.20
55785;DHT22;41709;52.536;5.688;2023-05-10T10:04:03;14.30;90.00
55785;DHT22;41709;52.536;5.688;2023-05-10T10:06:29;14.40;89.80
55785;DHT22;41709;52.536;5.688;2023-05-10T10:08:55;14.40;90.20
55785;DHT22;41709;52.536;5.688;2023-05-10T10:11:21;14.50;89.20
55785;DHT22;41709;52.536;5.688;2023-05-10T10:13:49;14.60;90.00
55785;DHT22;41709;52.536;5.688;2023-05-10T10:16:14;14.60;89.60
55785;DHT22;41709;52.536;5.688;2023-05-10T10:18:41;14.70;89.20
55785;DHT22;41709;52.536;5.688;2023-05-10T10:21:07;14.70;88.80
55785;DHT22;41709;52.536;5.688;2023-05-10T10:23:35;14.50;88.90
55785;DHT22;41709;52.536;5.688;2023-05-10T10:26:04;14.50;88.60
55785;DHT22;41709;52.536;5.688;2023-05-10T10:28:40;14.50;89.50
55785;DHT22;41709;52.536;5.688;2023-05-10T10:31:34;14.40;89.60
55785;DHT22;41709;52.536;5.688;2023-05-10T10:34:06;14.70;90.20
55785;DHT22;41709;52.536;5.688;2023-05-10T10:36:45;14.60;90.10
55785;DHT22;41709;52.536;5.688;2023-05-10T10:39:11;14.60;88.70
55785;DHT22;41709;52.536;5.688;2023-05-10T10:41:51;14.70;88.50
55785;DHT22;41709;52.536;5.688;2023-05-10T10:50:07;14.80;87.90
55785;DHT22;41709;52.536;5.688;2023-05-10T10:52:37;14.80;88.10
55785;DHT22;41709;52.536;5.688;2023-05-10T10:55:10;14.80;87.60
55785;DHT22;41709;52.536;5.688;2023-05-10T11:02:48;14.80;87.60
55785;DHT22;41709;52.536;5.688;2023-05-10T11:07:58;14.90;87.80
55785;DHT22;41709;52.536;5.688;2023-05-10T11:10:26;15.00;86.80
55785;DHT22;41709;52.536;5.688;2023-05-10T11:15:17;15.10;88.40
55785;DHT22;41709;52.536;5.688;2023-05-10T11:17:43;15.10;86.30
55785;DHT22;41709;52.536;5.688;2023-05-10T11:20:09;15.10;87.60
55785;DHT22;41709;52.536;5.688;2023-05-10T11:22:52;15.10;86.00
55785;DHT22;41709;52.536;5.688;2023-05-10T11:25:18;15.20;86.30
55785;DHT22;41709;52.536;5.688;2023-05-10T11:27:44;15.10;87.10
55785;DHT22;41709;52.536;5.688;2023-05-10T11:30:11;15.20;86.50
55785;DHT22;41709;52.536;5.688;2023-05-10T11:32:40;15.30;87.40
55785;DHT22;41709;52.536;5.688;2023-05-10T11:35:10;15.30;85.50
55785;DHT22;41709;52.536;5.688;2023-05-10T11:37:35;15.40;84.80
55785;DHT22;41709;52.536;5.688;2023-05-10T11:40:01;15.40;84.80
55785;DHT22;41709;52.536;5.688;2023-05-10T11:42:28;15.30;85.70
55785;DHT22;41709;52.536;5.688;2023-05-10T11:44:54;15.40;84.30
55785;DHT22;41709;52.536;5.688;2023-05-10T11:47:20;15.40;84.40
55785;DHT22;41709;52.536;5.688;2023-05-10T11:49:46;15.50;84.20
55785;DHT22;41709;52.536;5.688;2023-05-10T11:52:12;15.50;84.00
55785;DHT22;41709;52.536;5.688;2023-05-10T11:54:37;15.50;84.90
55785;DHT22;41709;52.536;5.688;2023-05-10T11:57:03;15.60;84.50
55785;DHT22;41709;52.536;5.688;2023-05-10T11:59:29;15.60;83.40
55785;DHT22;41709;52.536;5.688;2023-05-10T12:01:55;15.50;82.80
55785;DHT22;41709;52.536;5.688;2023-05-10T12:04:21;15.60;83.10
55785;DHT22;41709;52.536;5.688;2023-05-10T12:06:46;15.70;84.00
55785;DHT22;41709;52.536;5.688;2023-05-10T12:09:12;15.70;85.60
55785;DHT22;41709;52.536;5.688;2023-05-10T12:11:39;15.70;85.10
55785;DHT22;41709;52.536;5.688;2023-05-10T12:14:05;15.70;85.30
55785;DHT22;41709;52.536;5.688;2023-05-10T12:16:32;15.60;84.50
55785;DHT22;41709;52.536;5.688;2023-05-10T12:18:59;15.70;84.70
55785;DHT22;41709;52.536;5.688;2023-05-10T12:21:25;15.60;84.10
55785;DHT22;41709;52.536;5.688;2023-05-10T12:23:54;15.70;84.40
55785;DHT22;41709;52.536;5.688;2023-05-10T12:26:25;15.70;83.20
55785;DHT22;41709;52.536;5.688;2023-05-10T12:28:54;15.60;82.20
55785;DHT22;41709;52.536;5.688;2023-05-10T12:31:20;15.70;84.90
55785;DHT22;41709;52.536;5.688;2023-05-10T12:33:46;15.70;83.10
55785;DHT22;41709;52.536;5.688;2023-05-10T12:36:14;15.70;81.40
55785;DHT22;41709;52.536;5.688;2023-05-10T12:38:42;15.70;81.30
55785;DHT22;41709;52.536;5.688;2023-05-10T12:41:16;15.70;82.70
55785;DHT22;41709;52.536;5.688;2023-05-10T12:43:41;15.70;84.70
55785;DHT22;41709;52.536;5.688;2023-05-10T12:46:16;15.70;84.40
55785;DHT22;41709;52.536;5.688;2023-05-10T12:48:43;15.80;83.00
55785;DHT22;41709;52.536;5.688;2023-05-10T12:51:09;15.80;83.10
55785;DHT22;41709;52.536;5.688;2023-05-10T12:53:37;15.80;82.80
55785;DHT22;41709;52.536;5.688;2023-05-10T12:56:03;15.90;82.90
55785;DHT22;41709;52.536;5.688;2023-05-10T12:58:28;15.80;82.60
55785;DHT22;41709;52.536;5.688;2023-05-10T13:00:54;15.90;83.10
55785;DHT22;41709;52.536;5.688;2023-05-10T13:03:22;16.00;81.50
55785;DHT22;41709;52.536;5.688;2023-05-10T13:05:47;16.10;82.00
55785;DHT22;41709;52.536;5.688;2023-05-10T13:08:13;16.10;81.70
55785;DHT22;41709;52.536;5.688;2023-05-10T13:10:38;16.10;80.50
55785;DHT22;41709;52.536;5.688;2023-05-10T13:13:04;16.10;82.20
55785;DHT22;41709;52.536;5.688;2023-05-10T13:15:30;16.10;80.60
55785;DHT22;41709;52.536;5.688;2023-05-10T13:17:56;16.20;82.60
55785;DHT22;41709;52.536;5.688;2023-05-10T13:20:21;16.30;81.70
55785;DHT22;41709;52.536;5.688;2023-05-10T13:22:47;16.40;79.10
55785;DHT22;41709;52.536;5.688;2023-05-10T13:25:13;16.30;80.00
55785;DHT22;41709;52.536;5.688;2023-05-10T13:27:41;16.40;78.60
55785;DHT22;41709;52.536;5.688;2023-05-10T13:30:07;16.50;79.10
55785;DHT22;41709;52.536;5.688;2023-05-10T13:32:34;16.40;79.30
55785;DHT22;41709;52.536;5.688;2023-05-10T13:34:59;16.40;75.90
55785;DHT22;41709;52.536;5.688;2023-05-10T13:37:25;16.30;76.50
55785;DHT22;41709;52.536;5.688;2023-05-10T13:39:50;16.40;76.40
55785;DHT22;41709;52.536;5.688;2023-05-10T13:42:17;16.50;76.90
55785;DHT22;41709;52.536;5.688;2023-05-10T13:44:43;16.60;77.00
55785;DHT22;41709;52.536;5.688;2023-05-10T13:47:08;16.60;77.10
55785;DHT22;41709;52.536;5.688;2023-05-10T13:49:34;16.70;77.50
55785;DHT22;41709;52.536;5.688;2023-05-10T13:52:00;16.70;78.50
55785;DHT22;41709;52.536;5.688;2023-05-10T13:54:32;16.70;77.00
55785;DHT22;41709;52.536;5.688;2023-05-10T13:56:58;16.70;77.50
55785;DHT22;41709;52.536;5.688;2023-05-10T13:59:24;16.70;77.20
55785;DHT22;41709;52.536;5.688;2023-05-10T14:01:49;16.80;77.10
55785;DHT22;41709;52.536;5.688;2023-05-10T14:04:15;17.00;75.20
55785;DHT22;41709;52.536;5.688;2023-05-10T14:06:40;17.10;76.50
55785;DHT22;41709;52.536;5.688;2023-05-10T14:09:06;17.10;74.50
55785;DHT22;41709;52.536;5.688;2023-05-10T14:11:31;17.10;73.20
55785;DHT22;41709;52.536;5.688;2023-05-10T14:13:57;17.10;73.00
55785;DHT22;41709;52.536;5.688;2023-05-10T14:16:23;17.10;73.00
55785;DHT22;41709;52.536;5.688;2023-05-10T14:18:48;17.20;75.00
55785;DHT22;41709;52.536;5.688;2023-05-10T14:21:14;17.30;74.20
55785;DHT22;41709;52.536;5.688;2023-05-10T14:23:40;17.30;73.30
55785;DHT22;41709;52.536;5.688;2023-05-10T14:26:06;17.30;75.40
55785;DHT22;41709;52.536;5.688;2023-05-10T14:28:31;17.30;75.10
55785;DHT22;41709;52.536;5.688;2023-05-10T14:30:57;17.40;73.80
55785;DHT22;41709;52.536;5.688;2023-05-10T14:33:23;17.40;73.80
55785;DHT22;41709;52.536;5.688;2023-05-10T14:35:48;17.50;74.60
55785;DHT22;41709;52.536;5.688;2023-05-10T14:38:14;17.50;75.10
55785;DHT22;41709;52.536;5.688;2023-05-10T14:40:40;17.50;74.60
55785;DHT22;41709;52.536;5.688;2023-05-10T14:43:05;17.50;73.80
55785;DHT22;41709;52.536;5.688;2023-05-10T14:45:31;17.40;75.60
55785;DHT22;41709;52.536;5.688;2023-05-10T14:47:57;17.40;75.90
55785;DHT22;41709;52.536;5.688;2023-05-10T14:50:22;17.40;76.20
55785;DHT22;41709;52.536;5.688;2023-05-10T14:52:48;17.40;76.60
55785;DHT22;41709;52.536;5.688;2023-05-10T14:55:14;17.40;76.70
55785;DHT22;41709;52.536;5.688;2023-05-10T14:57:40;17.50;75.60
55785;DHT22;41709;52.536;5.688;2023-05-10T15:00:06;17.30;76.00
55785;DHT22;41709;52.536;5.688;2023-05-10T15:02:32;17.30;76.20
55785;DHT22;41709;52.536;5.688;2023-05-10T15:04:58;17.30;75.80
55785;DHT22;41709;52.536;5.688;2023-05-10T15:07:23;17.30;75.90
55785;DHT22;41709;52.536;5.688;2023-05-10T15:09:50;17.30;76.00
55785;DHT22;41709;52.536;5.688;2023-05-10T15:12:17;17.30;75.20
55785;DHT22;41709;52.536;5.688;2023-05-10T15:14:43;17.40;74.80
55785;DHT22;41709;52.536;5.688;2023-05-10T15:17:09;17.40;74.90
55785;DHT22;41709;52.536;5.688;2023-05-10T15:19:35;17.40;75.70
55785;DHT22;41709;52.536;5.688;2023-05-10T15:22:02;17.30;77.00
55785;DHT22;41709;52.536;5.688;2023-05-10T15:24:27;17.30;77.00
55785;DHT22;41709;52.536;5.688;2023-05-10T15:26:53;17.30;76.60
55785;DHT22;41709;52.536;5.688;2023-05-10T15:29:19;17.30;76.50
55785;DHT22;41709;52.536;5.688;2023-05-10T15:31:49;17.30;77.40
55785;DHT22;41709;52.536;5.688;2023-05-10T15:34:16;17.30;76.70
55785;DHT22;41709;52.536;5.688;2023-05-10T15:36:41;17.30;77.40
55785;DHT22;41709;52.536;5.688;2023-05-10T15:39:07;17.30;75.80
55785;DHT22;41709;52.536;5.688;2023-05-10T15:41:34;17.30;76.50
55785;DHT22;41709;52.536;5.688;2023-05-10T15:44:00;17.20;76.20
55785;DHT22;41709;52.536;5.688;2023-05-10T15:46:27;17.20;76.30
55785;DHT22;41709;52.536;5.688;2023-05-10T15:48:53;17.20;77.40
55785;DHT22;41709;52.536;5.688;2023-05-10T15:51:18;17.10;77.30
55785;DHT22;41709;52.536;5.688;2023-05-10T15:53:44;17.00;77.20
55785;DHT22;41709;52.536;5.688;2023-05-10T15:56:10;16.90;77.10
55785;DHT22;41709;52.536;5.688;2023-05-10T15:58:37;16.90;77.60
55785;DHT22;41709;52.536;5.688;2023-05-10T16:01:03;16.80;77.80
55785;DHT22;41709;52.536;5.688;2023-05-10T16:03:30;16.80;78.40
55785;DHT22;41709;52.536;5.688;2023-05-10T16:05:55;16.70;78.00